sensor_id;sensor_type;location;lat;lon;timestamp;pressure;altitude;pressure_sealevel;temperature;humidity
84318;BME280;74497;51.654;14.238;2024-03-08T00:00:19;101252.53;;;-2.74;100.00
84318;BME280;74497;51.654;14.238;2024-03-08T00:02:45;101256.06;;;-2.75;100.00
84318;BME280;74497;51.654;14.238;2024-03-08T00:05:12;101243.88;;;-2.76;100.00
84318;BME280;74497;51.654;14.238;2024-03-08T00:07:38;101250.09;;;-2.78;100.00
84318;BME280;74497;51.654;14.238;2024-03-08T00:10:05;101250.94;;;-2.78;100.00
84318;BME280;74497;51.654;14.238;2024-03-08T00:12:31;101246.63;;;-2.79;100.00
84318;BME280;74497;51.654;14.238;2024-03-08T00:14:57;101251.78;;;-2.77;100.00
84318;BME280;74497;51.654;14.238;2024-03-08T00:17:23;101247.41;;;-2.77;100.00
84318;BME280;74497;51.654;14.238;2024-03-08T00:19:49;101244.78;;;-2.77;100.00
84318;BME280;74497;51.654;14.238;2024-03-08T00:22:18;101235.38;;;-2.82;100.00
84318;BME280;74497;51.654;14.238;2024-03-08T00:24:43;101239.75;;;-2.83;100.00
84318;BME280;74497;51.654;14.238;2024-03-08T00:27:09;101236.28;;;-2.83;100.00
84318;BME280;74497;51.654;14.238;2024-03-08T00:29:35;101227.66;;;-2.85;100.00
84318;BME280;74497;51.654;14.238;2024-03-08T00:32:01;101225.91;;;-2.86;100.00
84318;BME280;74497;51.654;14.238;2024-03-08T00:34:26;101233.81;;;-2.88;100.00
84318;BME280;74497;51.654;14.238;2024-03-08T00:36:52;101236.41;;;-2.88;100.00
84318;BME280;74497;51.654;14.238;2024-03-08T00:39:18;101231.34;;;-2.92;100.00
84318;BME280;74497;51.654;14.238;2024-03-08T00:41:46;101226.19;;;-2.95;100.00
84318;BME280;74497;51.654;14.238;2024-03-08T00:44:13;101225.34;;;-2.96;100.00
84318;BME280;74497;51.654;14.238;2024-03-08T00:46:38;101224.69;;;-3.03;100.00
84318;BME280;74497;51.654;14.238;2024-03-08T00:49:04;101224.25;;;-3.18;100.00
84318;BME280;74497;51.654;14.238;2024-03-08T00:51:30;101228.22;;;-3.35;100.00
84318;BME280;74497;51.654;14.238;2024-03-08T00:53:55;101221.53;;;-3.45;100.00
84318;BME280;74497;51.654;14.238;2024-03-08T00:56:21;101222.56;;;-3.49;100.00
84318;BME280;74497;51.654;14.238;2024-03-08T00:58:47;101219.94;;;-3.49;100.00
84318;BME280;74497;51.654;14.238;2024-03-08T01:01:15;101216.44;;;-3.48;100.00
84318;BME280;74497;51.654;14.238;2024-03-08T01:03:44;101224.22;;;-3.46;100.00
84318;BME280;74497;51.654;14.238;2024-03-08T01:06:09;101227.78;;;-3.50;100.00
84318;BME280;74497;51.654;14.238;2024-03-08T01:08:37;101221.81;;;-3.54;100.00
84318;BME280;74497;51.654;14.238;2024-03-08T01:11:04;101208.81;;;-3.56;100.00
84318;BME280;74497;51.654;14.238;2024-03-08T01:13:30;101207.81;;;-3.51;100.00
84318;BME280;74497;51.654;14.238;2024-03-08T01:15:56;101212.97;;;-3.48;100.00
84318;BME280;74497;51.654;14.238;2024-03-08T01:18:22;101213.72;;;-3.45;100.00
84318;BME280;74497;51.654;14.238;2024-03-08T01:20:47;101209.31;;;-3.43;100.00
84318;BME280;74497;51.654;14.238;2024-03-08T01:23:13;101201.50;;;-3.44;100.00
84318;BME280;74497;51.654;14.238;2024-03-08T01:25:39;101196.56;;;-3.54;100.00
84318;BME280;74497;51.654;14.238;2024-03-08T01:28:05;101202.81;;;-3.59;100.00
84318;BME280;74497;51.654;14.238;2024-03-08T01:30:30;101201.09;;;-3.60;100.00
84318;BME280;74497;51.654;14.238;2024-03-08T01:32:58;101195.06;;;-3.62;100.00
84318;BME280;74497;51.654;14.238;2024-03-08T01:35:24;101200.41;;;-3.67;100.00
84318;BME280;74497;51.654;14.238;2024-03-08T01:37:49;101191.94;;;-3.75;100.00
84318;BME280;74497;51.654;14.238;2024-03-08T01:40:15;101186.28;;;-3.91;100.00
84318;BME280;74497;51.654;14.238;2024-03-08T01:42:42;101183.72;;;-3.92;100.00
84318;BME280;74497;51.654;14.238;2024-03-08T01:45:08;101181.22;;;-3.97;100.00
84318;BME280;74497;51.654;14.238;2024-03-08T01:47:35;101180.47;;;-4.00;100.00
84318;BME280;74497;51.654;14.238;2024-03-08T01:50:01;101177.91;;;-4.03;100.00
84318;BME280;74497;51.654;14.238;2024-03-08T01:52:29;101179.63;;;-4.02;100.00
84318;BME280;74497;51.654;14.238;2024-03-08T01:54:59;101178.59;;;-3.97;100.00
84318;BME280;74497;51.654;14.238;2024-03-08T01:57:27;101174.25;;;-3.96;100.00
84318;BME280;74497;51.654;14.238;2024-03-08T01:59:53;101181.28;;;-3.98;100.00
84318;BME280;74497;51.654;14.238;2024-03-08T02:02:21;101174.47;;;-4.04;100.00
84318;BME280;74497;51.654;14.238;2024-03-08T02:04:48;101178.88;;;-4.06;100.00
84318;BME280;74497;51.654;14.238;2024-03-08T02:07:14;101170.22;;;-4.08;100.00
84318;BME280;74497;51.654;14.238;2024-03-08T02:09:40;101166.84;;;-4.12;100.00
84318;BME280;74497;51.654;14.238;2024-03-08T02:12:06;101165.16;;;-4.14;100.00
84318;BME280;74497;51.654;14.238;2024-03-08T02:14:33;101165.09;;;-4.11;100.00
84318;BME280;74497;51.654;14.238;2024-03-08T02:17:02;101158.19;;;-4.14;100.00
84318;BME280;74497;51.654;14.238;2024-03-08T02:19:28;101159.22;;;-4.19;100.00
84318;BME280;74497;51.654;14.238;2024-03-08T02:21:54;101154.94;;;-4.22;100.00
84318;BME280;74497;51.654;14.238;2024-03-08T02:24:20;101154.88;;;-4.20;100.00
84318;BME280;74497;51.654;14.238;2024-03-08T02:26:46;101150.56;;;-4.21;100.00
84318;BME280;74497;51.654;14.238;2024-03-08T02:29:12;101150.66;;;-4.24;100.00
84318;BME280;74497;51.654;14.238;2024-03-08T02:31:38;101151.56;;;-4.27;100.00
84318;BME280;74497;51.654;14.238;2024-03-08T02:34:04;101147.31;;;-4.29;100.00
84318;BME280;74497;51.654;14.238;2024-03-08T02:36:30;101149.13;;;-4.31;100.00
84318;BME280;74497;51.654;14.238;2024-03-08T02:39:02;101149.13;;;-4.31;100.00
84318;BME280;74497;51.654;14.238;2024-03-08T02:41:28;101147.94;;;-4.21;100.00
84318;BME280;74497;51.654;14.238;2024-03-08T02:43:53;101145.22;;;-4.17;100.00
84318;BME280;74497;51.654;14.238;2024-03-08T02:46:20;101143.41;;;-4.13;100.00
84318;BME280;74497;51.654;14.238;2024-03-08T02:48:46;101146.94;;;-4.16;100.00
84318;BME280;74497;51.654;14.238;2024-03-08T02:51:12;101138.25;;;-4.16;100.00
84318;BME280;74497;51.654;14.238;2024-03-08T02:53:39;101141.09;;;-4.24;100.00
84318;BME280;74497;51.654;14.238;2024-03-08T02:56:04;101140.59;;;-4.38;100.00
84318;BME280;74497;51.654;14.238;2024-03-08T02:58:34;101135.53;;;-4.44;100.00
84318;BME280;74497;51.654;14.238;2024-03-08T03:00:59;101132.22;;;-4.51;100.00
84318;BME280;74497;51.654;14.238;2024-03-08T03:03:25;101134.94;;;-4.55;100.00
84318;BME280;74497;51.654;14.238;2024-03-08T03:05:52;101123.72;;;-4.57;100.00
84318;BME280;74497;51.654;14.238;2024-03-08T03:08:21;101134.16;;;-4.59;100.00
84318;BME280;74497;51.654;14.238;2024-03-08T03:10:47;101131.53;;;-4.59;100.00
84318;BME280;74497;51.654;14.238;2024-03-08T03:13:13;101129.78;;;-4.58;100.00
84318;BME280;74497;51.654;14.238;2024-03-08T03:15:39;101119.38;;;-4.58;100.00
84318;BME280;74497;51.654;14.238;2024-03-08T03:18:07;101127.13;;;-4.55;100.00
84318;BME280;74497;51.654;14.238;2024-03-08T03:20:33;101120.00;;;-4.49;100.00
84318;BME280;74497;51.654;14.238;2024-03-08T03:23:02;101124.22;;;-4.43;100.00
84318;BME280;74497;51.654;14.238;2024-03-08T03:25:28;101124.09;;;-4.40;100.00
84318;BME280;74497;51.654;14.238;2024-03-08T03:27:59;101124.84;;;-4.35;100.00
84318;BME280;74497;51.654;14.238;2024-03-08T03:30:25;101121.38;;;-4.36;100.00
84318;BME280;74497;51.654;14.238;2024-03-08T03:32:52;101130.19;;;-4.40;100.00
84318;BME280;74497;51.654;14.238;2024-03-08T03:35:18;101124.25;;;-4.45;100.00
84318;BME280;74497;51.654;14.238;2024-03-08T03:37:46;101120.84;;;-4.48;100.00
84318;BME280;74497;51.654;14.238;2024-03-08T03:40:30;101124.47;;;-4.54;100.00
84318;BME280;74497;51.654;14.238;2024-03-08T03:42:56;101121.09;;;-4.57;100.00
84318;BME280;74497;51.654;14.238;2024-03-08T03:45:23;101126.41;;;-4.62;100.00
84318;BME280;74497;51.654;14.238;2024-03-08T03:47:49;101122.97;;;-4.63;100.00
84318;BME280;74497;51.654;14.238;2024-03-08T03:50:14;101117.69;;;-4.61;100.00
84318;BME280;74497;51.654;14.238;2024-03-08T03:52:40;101127.16;;;-4.57;100.00
84318;BME280;74497;51.654;14.238;2024-03-08T03:55:08;101123.63;;;-4.54;100.00
84318;BME280;74497;51.654;14.238;2024-03-08T03:57:34;101121.88;;;-4.54;100.00
84318;BME280;74497;51.654;14.238;2024-03-08T03:59:59;101120.09;;;-4.53;100.00
84318;BME280;74497;51.654;14.238;2024-03-08T04:02:25;101109.63;;;-4.50;100.00
84318;BME280;74497;51.654;14.238;2024-03-08T04:04:52;101113.94;;;-4.49;100.00
84318;BME280;74497;51.654;14.238;2024-03-08T04:07:20;101113.94;;;-4.49;100.00
84318;BME280;74497;51.654;14.238;2024-03-08T04:09:46;101115.59;;;-4.47;100.00
84318;BME280;74497;51.654;14.238;2024-03-08T04:12:12;101116.50;;;-4.48;100.00
84318;BME280;74497;51.654;14.238;2024-03-08T04:14:40;101115.72;;;-4.51;100.00
84318;BME280;74497;51.654;14.238;2024-03-08T04:17:06;101104.47;;;-4.53;100.00
84318;BME280;74497;51.654;14.238;2024-03-08T04:19:34;101104.41;;;-4.52;100.00
84318;BME280;74497;51.654;14.238;2024-03-08T04:22:00;101106.16;;;-4.51;100.00
84318;BME280;74497;51.654;14.238;2024-03-08T04:24:26;101108.78;;;-4.52;100.00
84318;BME280;74497;51.654;14.238;2024-03-08T04:26:52;101120.06;;;-4.52;100.00
84318;BME280;74497;51.654;14.238;2024-03-08T04:29:18;101109.47;;;-4.44;100.00
84318;BME280;74497;51.654;14.238;2024-03-08T04:31:44;101107.66;;;-4.42;100.00
84318;BME280;74497;51.654;14.238;2024-03-08T04:34:10;101111.06;;;-4.39;100.00
84318;BME280;74497;51.654;14.238;2024-03-08T04:36:36;101107.53;;;-4.38;100.00
84318;BME280;74497;51.654;14.238;2024-03-08T04:39:02;101102.34;;;-4.39;100.00
84318;BME280;74497;51.654;14.238;2024-03-08T04:41:28;101103.09;;;-4.34;100.00
84318;BME280;74497;51.654;14.238;2024-03-08T04:43:56;101096.97;;;-4.31;100.00
84318;BME280;74497;51.654;14.238;2024-03-08T04:46:23;101093.44;;;-4.30;100.00
84318;BME280;74497;51.654;14.238;2024-03-08T04:48:49;101096.97;;;-4.31;100.00
84318;BME280;74497;51.654;14.238;2024-03-08T04:51:15;101097.03;;;-4.35;100.00
84318;BME280;74497;51.654;14.238;2024-03-08T04:53:41;101097.13;;;-4.38;100.00
84318;BME280;74497;51.654;14.238;2024-03-08T04:56:07;101095.41;;;-4.39;100.00
84318;BME280;74497;51.654;14.238;2024-03-08T04:58:35;101089.28;;;-4.38;100.00
84318;BME280;74497;51.654;14.238;2024-03-08T05:01:01;101093.59;;;-4.37;100.00
84318;BME280;74497;51.654;14.238;2024-03-08T05:03:27;101095.25;;;-4.32;100.00
84318;BME280;74497;51.654;14.238;2024-03-08T05:05:53;101090.03;;;-4.32;100.00
84318;BME280;74497;51.654;14.238;2024-03-08T05:08:18;101093.56;;;-4.35;100.00
84318;BME280;74497;51.654;14.238;2024-03-08T05:10:45;101088.47;;;-4.40;100.00
84318;BME280;74497;51.654;14.238;2024-03-08T05:13:10;101088.47;;;-4.40;100.00
84318;BME280;74497;51.654;14.238;2024-03-08T05:15:38;101093.69;;;-4.40;100.00
84318;BME280;74497;51.654;14.238;2024-03-08T05:18:05;101091.13;;;-4.41;100.00
84318;BME280;74497;51.654;14.238;2024-03-08T05:20:30;101087.78;;;-4.46;100.00
84318;BME280;74497;51.654;14.238;2024-03-08T05:22:56;101092.13;;;-4.47;100.00
84318;BME280;74497;51.654;14.238;2024-03-08T05:25:26;101086.00;;;-4.44;100.00
84318;BME280;74497;51.654;14.238;2024-03-08T05:27:52;101091.22;;;-4.44;100.00
84318;BME280;74497;51.654;14.238;2024-03-08T05:30:18;101091.06;;;-4.38;100.00
84318;BME280;74497;51.654;14.238;2024-03-08T05:32:43;101083.88;;;-4.30;100.00
84318;BME280;74497;51.654;14.238;2024-03-08T05:35:12;101087.28;;;-4.28;100.00
84318;BME280;74497;51.654;14.238;2024-03-08T05:37:38;101087.31;;;-4.29;100.00
84318;BME280;74497;51.654;14.238;2024-03-08T05:40:06;101081.22;;;-4.28;100.00
84318;BME280;74497;51.654;14.238;2024-03-08T05:42:35;101088.91;;;-4.24;100.00
84318;BME280;74497;51.654;14.238;2024-03-08T05:45:02;101089.66;;;-4.20;100.00
84318;BME280;74497;51.654;14.238;2024-03-08T05:47:29;101087.00;;;-4.17;100.00
84318;BME280;74497;51.654;14.238;2024-03-08T05:49:54;101079.16;;;-4.17;100.00
84318;BME280;74497;51.654;14.238;2024-03-08T05:52:21;101082.53;;;-4.14;100.00
84318;BME280;74497;51.654;14.238;2024-03-08T05:54:46;101084.09;;;-4.06;100.00
84318;BME280;74497;51.654;14.238;2024-03-08T05:57:12;101088.25;;;-3.99;100.00
84318;BME280;74497;51.654;14.238;2024-03-08T05:59:39;101081.94;;;-3.92;100.00
84318;BME280;74497;51.654;14.238;2024-03-08T06:02:05;101086.03;;;-3.84;100.00
84318;BME280;74497;51.654;14.238;2024-03-08T06:04:31;101088.41;;;-3.74;100.00
84318;BME280;74497;51.654;14.238;2024-03-08T06:06:57;101088.97;;;-3.65;100.00
84318;BME280;74497;51.654;14.238;2024-03-08T06:09:26;101095.59;;;-3.53;100.00
84318;BME280;74497;51.654;14.238;2024-03-08T06:11:52;101085.50;;;-3.37;100.00
84318;BME280;74497;51.654;14.238;2024-03-08T06:14:19;101090.22;;;-3.20;100.00
84318;BME280;74497;51.654;14.238;2024-03-08T06:16:46;101093.25;;;-3.06;100.00
84318;BME280;74497;51.654;14.238;2024-03-08T06:19:12;101086.69;;;-2.91;100.00
84318;BME280;74497;51.654;14.238;2024-03-08T06:21:38;101079.25;;;-2.77;100.00
84318;BME280;74497;51.654;14.238;2024-03-08T06:24:05;101081.38;;;-2.63;100.00
84318;BME280;74497;51.654;14.238;2024-03-08T06:26:30;101080.97;;;-2.51;100.00
84318;BME280;74497;51.654;14.238;2024-03-08T06:28:56;101083.22;;;-2.40;100.00
84318;BME280;74497;51.654;14.238;2024-03-08T06:31:22;101078.41;;;-2.28;100.00
84318;BME280;74497;51.654;14.238;2024-03-08T06:33:48;101077.88;;;-2.12;100.00
84318;BME280;74497;51.654;14.238;2024-03-08T06:36:18;101080.94;;;-2.01;100.00
84318;BME280;74497;51.654;14.238;2024-03-08T06:38:50;101074.59;;;-1.94;100.00
84318;BME280;74497;51.654;14.238;2024-03-08T06:41:16;101077.66;;;-1.83;100.00
84318;BME280;74497;51.654;14.238;2024-03-08T06:43:46;101073.00;;;-1.75;100.00
84318;BME280;74497;51.654;14.238;2024-03-08T06:46:12;101072.75;;;-1.69;100.00
84318;BME280;74497;51.654;14.238;2024-03-08T06:48:39;101073.44;;;-1.64;100.00
84318;BME280;74497;51.654;14.238;2024-03-08T06:51:04;101078.38;;;-1.56;100.00
84318;BME280;74497;51.654;14.238;2024-03-08T06:53:31;101078.16;;;-1.50;100.00
84318;BME280;74497;51.654;14.238;2024-03-08T06:55:57;101074.53;;;-1.47;100.00
84318;BME280;74497;51.654;14.238;2024-03-08T06:58:23;101068.16;;;-1.40;100.00
84318;BME280;74497;51.654;14.238;2024-03-08T07:00:49;101077.38;;;-1.30;100.00
84318;BME280;74497;51.654;14.238;2024-03-08T07:03:18;101071.66;;;-1.18;100.00
84318;BME280;74497;51.654;14.238;2024-03-08T07:05:44;101062.31;;;-1.03;100.00
84318;BME280;74497;51.654;14.238;2024-03-08T07:08:10;101074.06;;;-0.91;100.00
84318;BME280;74497;51.654;14.238;2024-03-08T07:10:40;101066.69;;;-0.82;100.00
84318;BME280;74497;51.654;14.238;2024-03-08T07:13:07;101066.28;;;-0.72;100.00
84318;BME280;74497;51.654;14.238;2024-03-08T07:15:33;101067.56;;;-0.61;100.00
84318;BME280;74497;51.654;14.238;2024-03-08T07:17:59;101055.88;;;-0.53;100.00
84318;BME280;74497;51.654;14.238;2024-03-08T07:20:25;101065.91;;;-0.43;100.00
84318;BME280;74497;51.654;14.238;2024-03-08T07:22:51;101057.72;;;-0.35;100.00
84318;BME280;74497;51.654;14.238;2024-03-08T07:25:17;101053.78;;;-0.25;100.00
84318;BME280;74497;51.654;14.238;2024-03-08T07:27:49;101051.56;;;-0.15;100.00
84318;BME280;74497;51.654;14.238;2024-03-08T07:30:15;101052.88;;;-0.05;100.00
84318;BME280;74497;51.654;14.238;2024-03-08T07:33:00;101047.00;;;0.09;100.00
84318;BME280;74497;51.654;14.238;2024-03-08T07:35:30;101048.00;;;0.25;100.00
84318;BME280;74497;51.654;14.238;2024-03-08T07:37:56;101049.06;;;0.40;100.00
84318;BME280;74497;51.654;14.238;2024-03-08T07:40:23;101049.47;;;0.49;100.00
84318;BME280;74497;51.654;14.238;2024-03-08T07:42:52;101043.09;;;0.55;100.00
84318;BME280;74497;51.654;14.238;2024-03-08T07:45:18;101046.16;;;0.65;100.00
84318;BME280;74497;51.654;14.238;2024-03-08T07:47:43;101041.91;;;0.79;100.00
84318;BME280;74497;51.654;14.238;2024-03-08T07:50:09;101032.41;;;0.94;100.00
84318;BME280;74497;51.654;14.238;2024-03-08T07:52:35;101037.72;;;1.12;100.00
84318;BME280;74497;51.654;14.238;2024-03-08T07:55:04;101038.97;;;1.22;100.00
84318;BME280;74497;51.654;14.238;2024-03-08T07:57:31;101038.50;;;1.31;100.00
84318;BME280;74497;51.654;14.238;2024-03-08T07:59:57;101034.28;;;1.44;100.00
84318;BME280;74497;51.654;14.238;2024-03-08T08:02:23;101036.00;;;1.62;100.00
84318;BME280;74497;51.654;14.238;2024-03-08T08:04:49;101036.59;;;1.85;100.00
84318;BME280;74497;51.654;14.238;2024-03-08T08:07:14;101038.06;;;2.06;100.00
84318;BME280;74497;51.654;14.238;2024-03-08T08:09:41;101031.19;;;2.20;100.00
84318;BME280;74497;51.654;14.238;2024-03-08T08:12:08;101028.50;;;2.37;100.00
84318;BME280;74497;51.654;14.238;2024-03-08T08:14:38;101026.19;;;2.47;100.00
84318;BME280;74497;51.654;14.238;2024-03-08T08:17:04;101023.66;;;2.61;100.00
84318;BME280;74497;51.654;14.238;2024-03-08T08:19:30;101027.09;;;2.77;100.00
84318;BME280;74497;51.654;14.238;2024-03-08T08:21:57;101019.75;;;2.98;100.00
84318;BME280;74497;51.654;14.238;2024-03-08T08:24:23;101015.53;;;3.10;100.00
84318;BME280;74497;51.654;14.238;2024-03-08T08:26:49;101021.44;;;3.29;100.00
84318;BME280;74497;51.654;14.238;2024-03-08T08:29:16;101007.16;;;3.47;100.00
84318;BME280;74497;51.654;14.238;2024-03-08T08:31:41;101005.31;;;3.64;100.00
84318;BME280;74497;51.654;14.238;2024-03-08T08:34:09;101006.81;;;3.82;100.00
84318;BME280;74497;51.654;14.238;2024-03-08T08:36:35;101004.91;;;3.98;100.00
84318;BME280;74497;51.654;14.238;2024-03-08T08:39:00;101003.84;;;4.29;100.00
84318;BME280;74497;51.654;14.238;2024-03-08T08:41:28;101002.69;;;4.48;100.00
84318;BME280;74497;51.654;14.238;2024-03-08T08:43:54;100995.81;;;4.58;100.00
84318;BME280;74497;51.654;14.238;2024-03-08T08:46:20;100991.31;;;4.60;100.00
84318;BME280;74497;51.654;14.238;2024-03-08T08:48:47;100994.84;;;4.73;100.00
84318;BME280;74497;51.654;14.238;2024-03-08T08:51:12;100986.34;;;4.95;100.00
84318;BME280;74497;51.654;14.238;2024-03-08T08:53:39;100985.06;;;5.01;100.00
84318;BME280;74497;51.654;14.238;2024-03-08T08:56:11;100989.63;;;4.99;100.00
84318;BME280;74497;51.654;14.238;2024-03-08T08:58:42;100985.19;;;4.99;100.00
84318;BME280;74497;51.654;14.238;2024-03-08T09:01:08;100986.34;;;5.08;100.00
84318;BME280;74497;51.654;14.238;2024-03-08T09:03:36;100979.81;;;5.13;100.00
84318;BME280;74497;51.654;14.238;2024-03-08T09:06:08;100973.91;;;5.23;100.00
84318;BME280;74497;51.654;14.238;2024-03-08T09:08:36;100979.97;;;5.37;100.00
84318;BME280;74497;51.654;14.238;2024-03-08T09:11:02;100972.88;;;5.51;100.00
84318;BME280;74497;51.654;14.238;2024-03-08T09:13:27;100980.59;;;5.41;100.00
84318;BME280;74497;51.654;14.238;2024-03-08T09:15:53;100977.31;;;5.50;100.00
84318;BME280;74497;51.654;14.238;2024-03-08T09:18:19;100978.81;;;5.67;100.00
84318;BME280;74497;51.654;14.238;2024-03-08T09:20:45;100972.09;;;5.87;100.00
84318;BME280;74497;51.654;14.238;2024-03-08T09:23:10;100976.22;;;6.04;100.00
84318;BME280;74497;51.654;14.238;2024-03-08T09:25:36;100967.13;;;6.08;100.00
84318;BME280;74497;51.654;14.238;2024-03-08T09:28:02;100962.78;;;6.07;100.00
84318;BME280;74497;51.654;14.238;2024-03-08T09:30:27;100959.69;;;6.13;100.00
84318;BME280;74497;51.654;14.238;2024-03-08T09:32:54;100953.50;;;6.25;100.00
84318;BME280;74497;51.654;14.238;2024-03-08T09:35:20;100951.31;;;6.43;100.00
84318;BME280;74497;51.654;14.238;2024-03-08T09:37:45;100944.09;;;6.69;100.00
84318;BME280;74497;51.654;14.238;2024-03-08T09:40:13;100951.09;;;6.70;100.00
84318;BME280;74497;51.654;14.238;2024-03-08T09:42:42;100950.06;;;6.60;100.00
84318;BME280;74497;51.654;14.238;2024-03-08T09:45:09;100953.69;;;6.59;100.00
84318;BME280;74497;51.654;14.238;2024-03-08T09:47:42;100946.69;;;6.58;96.99
84318;BME280;74497;51.654;14.238;2024-03-08T09:50:08;100943.34;;;6.67;99.28
84318;BME280;74497;51.654;14.238;2024-03-08T09:52:36;100947.06;;;6.88;97.34
84318;BME280;74497;51.654;14.238;2024-03-08T09:55:05;100943.84;;;6.72;88.76
84318;BME280;74497;51.654;14.238;2024-03-08T09:57:36;100950.81;;;6.62;94.14
84318;BME280;74497;51.654;14.238;2024-03-08T10:00:03;100941.63;;;6.66;95.11
84318;BME280;74497;51.654;14.238;2024-03-08T10:02:37;100937.81;;;6.70;98.28
84318;BME280;74497;51.654;14.238;2024-03-08T10:05:03;100938.25;;;6.88;98.29
84318;BME280;74497;51.654;14.238;2024-03-08T10:07:28;100933.69;;;7.01;94.87
84318;BME280;74497;51.654;14.238;2024-03-08T10:09:54;100920.88;;;6.95;93.32
84318;BME280;74497;51.654;14.238;2024-03-08T10:12:20;100920.06;;;7.05;91.82
84318;BME280;74497;51.654;14.238;2024-03-08T10:14:46;100920.44;;;7.12;88.00
84318;BME280;74497;51.654;14.238;2024-03-08T10:17:12;100917.94;;;7.22;89.04
84318;BME280;74497;51.654;14.238;2024-03-08T10:19:37;100915.78;;;7.49;85.98
84318;BME280;74497;51.654;14.238;2024-03-08T10:22:04;100907.69;;;7.73;84.38
84318;BME280;74497;51.654;14.238;2024-03-08T10:24:31;100905.03;;;7.96;74.99
84318;BME280;74497;51.654;14.238;2024-03-08T10:27:00;100894.88;;;7.67;72.66
84318;BME280;74497;51.654;14.238;2024-03-08T10:29:27;100901.03;;;7.34;69.40
84318;BME280;74497;51.654;14.238;2024-03-08T10:31:54;100900.56;;;7.40;76.65
84318;BME280;74497;51.654;14.238;2024-03-08T10:34:22;100894.78;;;7.46;65.79
84318;BME280;74497;51.654;14.238;2024-03-08T10:36:52;100895.38;;;7.39;65.21
84318;BME280;74497;51.654;14.238;2024-03-08T10:39:22;100897.19;;;7.38;63.38
84318;BME280;74497;51.654;14.238;2024-03-08T10:41:58;100887.75;;;7.56;63.37
84318;BME280;74497;51.654;14.238;2024-03-08T10:49:32;100885.94;;;7.68;68.53
84318;BME280;74497;51.654;14.238;2024-03-08T10:52:05;100881.09;;;7.73;64.55
84318;BME280;74497;51.654;14.238;2024-03-08T10:54:34;100881.09;;;7.96;66.60
84318;BME280;74497;51.654;14.238;2024-03-08T10:57:03;100876.84;;;8.04;63.74
84318;BME280;74497;51.654;14.238;2024-03-08T10:59:32;100869.19;;;8.11;61.95
84318;BME280;74497;51.654;14.238;2024-03-08T11:02:00;100871.22;;;8.19;61.55
84318;BME280;74497;51.654;14.238;2024-03-08T11:04:25;100868.28;;;8.33;61.18
84318;BME280;74497;51.654;14.238;2024-03-08T11:06:51;100862.38;;;8.41;63.63
84318;BME280;74497;51.654;14.238;2024-03-08T11:09:36;100861.06;;;8.24;62.70
84318;BME280;74497;51.654;14.238;2024-03-08T11:12:19;100856.31;;;8.38;60.69
84318;BME280;74497;51.654;14.238;2024-03-08T11:14:46;100866.22;;;8.48;58.37
84318;BME280;74497;51.654;14.238;2024-03-08T11:17:15;100847.59;;;8.69;58.36
84318;BME280;74497;51.654;14.238;2024-03-08T11:19:49;100852.53;;;8.73;57.73
84318;BME280;74497;51.654;14.238;2024-03-08T11:22:23;100855.78;;;8.77;57.87
84318;BME280;74497;51.654;14.238;2024-03-08T11:24:49;100850.19;;;8.80;58.38
84318;BME280;74497;51.654;14.238;2024-03-08T11:27:15;100848.53;;;8.79;61.03
84318;BME280;74497;51.654;14.238;2024-03-08T11:29:41;100847.59;;;8.69;63.34
84318;BME280;74497;51.654;14.238;2024-03-08T11:32:16;100847.91;;;8.75;62.73
84318;BME280;74497;51.654;14.238;2024-03-08T11:34:48;100844.97;;;8.57;63.45
84318;BME280;74497;51.654;14.238;2024-03-08T11:37:19;100839.75;;;8.67;60.75
84318;BME280;74497;51.654;14.238;2024-03-08T11:39:54;100826.94;;;8.61;61.91
84318;BME280;74497;51.654;14.238;2024-03-08T11:42:25;100831.56;;;8.80;67.44
84318;BME280;74497;51.654;14.238;2024-03-08T11:44:52;100835.09;;;8.90;66.83
84318;BME280;74497;51.654;14.238;2024-03-08T11:47:18;100827.91;;;8.60;65.83
84318;BME280;74497;51.654;14.238;2024-03-08T11:49:44;100822.66;;;8.70;67.15
84318;BME280;74497;51.654;14.238;2024-03-08T11:52:11;100813.44;;;8.74;64.20
84318;BME280;74497;51.654;14.238;2024-03-08T11:55:00;100815.72;;;8.78;69.26
84318;BME280;74497;51.654;14.238;2024-03-08T11:57:26;100804.66;;;8.83;70.47
84318;BME280;74497;51.654;14.238;2024-03-08T11:59:55;100806.34;;;8.84;69.46
84318;BME280;74497;51.654;14.238;2024-03-08T12:02:22;100796.41;;;8.86;68.67
84318;BME280;74497;51.654;14.238;2024-03-08T12:04:56;100799.69;;;8.99;69.19
84318;BME280;74497;51.654;14.238;2024-03-08T12:07:23;100794.69;;;9.06;69.37
84318;BME280;74497;51.654;14.238;2024-03-08T12:10:14;100788.84;;;9.21;70.83
84318;BME280;74497;51.654;14.238;2024-03-08T12:12:47;100789.06;;;9.39;70.10
84318;BME280;74497;51.654;14.238;2024-03-08T12:15:15;100783.56;;;9.31;68.75
84318;BME280;74497;51.654;14.238;2024-03-08T12:17:41;100788.16;;;9.19;71.37
84318;BME280;74497;51.654;14.238;2024-03-08T12:20:12;100784.91;;;9.16;68.95
84318;BME280;74497;51.654;14.238;2024-03-08T12:22:42;100778.31;;;9.10;70.46
84318;BME280;74497;51.654;14.238;2024-03-08T12:25:09;100776.69;;;9.29;72.32
84318;BME280;74497;51.654;14.238;2024-03-08T12:27:37;100770.19;;;9.12;69.47
84318;BME280;74497;51.654;14.238;2024-03-08T12:30:19;100769.06;;;9.14;75.09
84318;BME280;74497;51.654;14.238;2024-03-08T12:32:51;100759.00;;;9.28;70.82
84318;BME280;74497;51.654;14.238;2024-03-08T12:35:20;100761.78;;;9.16;71.16
84318;BME280;74497;51.654;14.238;2024-03-08T12:37:53;100763.78;;;9.24;69.39
84318;BME280;74497;51.654;14.238;2024-03-08T12:40:25;100761.00;;;9.35;71.58